createdAt,value
2023-01-12T00:01:38.797Z,1.92
2023-01-12T00:04:05.933Z,2.67
2023-01-12T00:06:32.638Z,3.15
2023-01-12T00:08:59.429Z,1.70
2023-01-12T00:11:26.345Z,1.65
2023-01-12T00:13:53.038Z,1.63
2023-01-12T00:16:41.420Z,2.22
2023-01-12T00:19:16.636Z,2.30
2023-01-12T00:21:50.368Z,2.10
2023-01-12T00:24:21.467Z,2.42
2023-01-12T00:26:48.500Z,4.05
2023-01-12T00:29:16.013Z,2.90
2023-01-12T00:31:42.710Z,3.33
2023-01-12T00:34:09.423Z,2.25
2023-01-12T00:36:36.041Z,2.63
2023-01-12T00:39:02.960Z,2.50
2023-01-12T00:41:49.471Z,2.30
2023-01-12T00:44:36.090Z,2.53
2023-01-12T00:47:02.794Z,2.53
2023-01-12T00:49:29.425Z,2.60
2023-01-12T00:51:56.031Z,2.90
2023-01-12T00:54:22.634Z,3.30
2023-01-12T00:56:49.229Z,2.70
2023-01-12T00:59:15.885Z,4.40
2023-01-12T01:01:42.669Z,5.90
2023-01-12T01:04:09.362Z,7.85
2023-01-12T01:06:38.694Z,5.97
2023-01-12T01:09:05.412Z,4.30
2023-01-12T01:11:32.101Z,4.53
2023-01-12T01:13:59.201Z,5.20
2023-01-12T01:16:25.804Z,3.80
2023-01-12T01:18:52.426Z,6.10
2023-01-12T01:21:19.015Z,6.20
2023-01-12T01:23:45.681Z,4.75
2023-01-12T01:26:14.498Z,4.05
2023-01-12T01:28:41.320Z,2.55
2023-01-12T01:31:09.893Z,3.00
2023-01-12T01:33:36.628Z,2.70
2023-01-12T01:36:06.293Z,2.88
2023-01-12T01:38:33.054Z,3.70
2023-01-12T01:40:59.859Z,2.83
2023-01-12T01:43:27.129Z,3.17
2023-01-12T01:46:04.053Z,2.38
2023-01-12T01:48:32.215Z,2.30
2023-01-12T01:51:00.881Z,2.15
2023-01-12T01:53:28.440Z,3.17
2023-01-12T01:56:00.028Z,2.05
2023-01-12T01:58:31.879Z,1.90
2023-01-12T02:00:58.505Z,1.90
2023-01-12T02:03:25.312Z,3.55
2023-01-12T02:05:51.989Z,2.13
2023-01-12T02:08:46.952Z,1.67
2023-01-12T02:11:33.518Z,3.85
2023-01-12T02:14:20.036Z,2.10
2023-01-12T02:16:57.784Z,2.15
2023-01-12T02:22:40.621Z,1.67
2023-01-12T02:28:21.173Z,1.85
2023-01-12T02:31:27.732Z,2.53
2023-01-12T02:34:05.803Z,2.78
2023-01-12T02:37:08.942Z,3.75
2023-01-12T02:39:44.461Z,2.30
2023-01-12T02:42:54.330Z,1.90
2023-01-12T02:48:36.748Z,1.98
2023-01-12T02:51:17.873Z,2.60
2023-01-12T02:53:50.049Z,2.67
2023-01-12T02:56:24.394Z,2.90
2023-01-12T02:58:53.177Z,2.70
2023-01-12T03:01:20.510Z,2.72
2023-01-12T03:03:48.631Z,2.22
2023-01-12T03:06:17.067Z,2.42
2023-01-12T03:08:43.960Z,1.63
2023-01-12T03:13:51.416Z,3.28
2023-01-12T03:16:20.675Z,2.50
2023-01-12T03:19:09.370Z,3.25
2023-01-12T03:21:40.030Z,2.80
2023-01-12T03:24:10.421Z,2.70
2023-01-12T03:26:38.313Z,2.65
2023-01-12T03:29:09.195Z,2.28
2023-01-12T03:31:36.498Z,4.38
2023-01-12T03:34:03.124Z,2.88
2023-01-12T03:36:35.625Z,3.28
2023-01-12T03:39:12.087Z,2.78
2023-01-12T03:41:51.074Z,2.00
2023-01-12T03:44:22.691Z,4.07
2023-01-12T03:46:55.292Z,3.00
2023-01-12T03:51:53.387Z,2.80
2023-01-12T03:54:19.989Z,2.85
2023-01-12T03:56:46.572Z,2.80
2023-01-12T03:59:13.184Z,4.28
2023-01-12T04:01:41.699Z,3.00
2023-01-12T04:04:08.404Z,3.22
2023-01-12T04:06:35.032Z,3.70
2023-01-12T04:09:01.616Z,4.50
2023-01-12T04:11:48.150Z,5.07
2023-01-12T04:14:14.781Z,2.92
2023-01-12T04:16:41.419Z,1.75
2023-01-12T04:19:08.102Z,1.58
2023-01-12T04:21:54.653Z,1.30
2023-01-12T04:24:21.325Z,1.13
2023-01-12T04:26:48.016Z,1.05
2023-01-12T04:29:14.596Z,1.05
2023-01-12T04:31:41.320Z,1.05
2023-01-12T04:34:08.108Z,0.93
2023-01-12T04:36:34.761Z,2.05
2023-01-12T04:39:01.394Z,1.40
2023-01-12T04:41:31.019Z,1.20
2023-01-12T04:43:57.620Z,1.52
2023-01-12T04:46:24.286Z,1.13
2023-01-12T04:48:50.947Z,2.25
2023-01-12T04:51:17.566Z,1.35
2023-01-12T04:53:44.322Z,1.23
2023-01-12T04:56:10.944Z,1.00
2023-01-12T04:58:37.637Z,1.30
2023-01-12T05:01:19.586Z,1.35
2023-01-12T05:03:46.507Z,1.10
2023-01-12T05:06:13.192Z,0.80
2023-01-12T05:08:59.764Z,1.10
2023-01-12T05:11:28.338Z,2.38
2023-01-12T05:13:55.773Z,1.13
2023-01-12T05:16:22.587Z,3.40
2023-01-12T05:18:49.277Z,3.58
2023-01-12T05:21:17.711Z,4.97
2023-01-12T05:23:45.193Z,4.38
2023-01-12T05:26:12.711Z,4.28
2023-01-12T05:28:39.475Z,3.42
2023-01-12T05:31:08.278Z,5.22
2023-01-12T05:33:35.502Z,4.00
2023-01-12T05:36:06.597Z,4.28
2023-01-12T05:38:33.262Z,4.53
2023-01-12T05:41:01.032Z,4.05
2023-01-12T05:43:48.258Z,4.40
2023-01-12T05:46:15.174Z,4.13
2023-01-12T05:48:41.782Z,4.20
2023-01-12T05:51:10.097Z,4.05
2023-01-12T05:53:37.132Z,4.57
2023-01-12T05:56:06.872Z,3.38
2023-01-12T05:58:33.470Z,3.50
2023-01-12T06:01:00.054Z,5.15
2023-01-12T06:03:27.940Z,3.28
2023-01-12T06:05:55.811Z,4.47
2023-01-12T06:08:22.569Z,3.83
2023-01-12T06:10:49.279Z,3.80
2023-01-12T06:13:35.837Z,3.60
2023-01-12T06:16:05.473Z,4.60
2023-01-12T06:18:39.751Z,3.20
2023-01-12T06:21:09.533Z,4.05
2023-01-12T06:23:36.216Z,3.80
2023-01-12T06:26:04.217Z,4.30
2023-01-12T06:28:30.876Z,3.65
2023-01-12T06:30:58.619Z,4.63
2023-01-12T06:33:25.700Z,3.00
2023-01-12T06:35:52.535Z,3.63
2023-01-12T06:38:19.358Z,3.75
2023-01-12T06:40:46.325Z,3.80
2023-01-12T06:43:12.992Z,3.70
2023-01-12T06:45:39.592Z,3.95
2023-01-12T06:48:06.381Z,5.07
2023-01-12T06:50:33.738Z,3.75
2023-01-12T06:53:00.978Z,3.72
2023-01-12T06:55:27.780Z,3.30
2023-01-12T06:57:54.406Z,2.65
2023-01-12T07:00:21.624Z,4.13
2023-01-12T07:02:50.811Z,2.85
2023-01-12T07:05:17.778Z,3.35
2023-01-12T07:07:44.742Z,3.42
2023-01-12T07:10:11.698Z,3.17
2023-01-12T07:12:38.677Z,3.40
2023-01-12T07:15:06.039Z,3.13
2023-01-12T07:17:33.016Z,2.00
2023-01-12T07:19:59.801Z,2.30
2023-01-12T07:22:27.051Z,2.85
2023-01-12T07:24:55.517Z,2.80
2023-01-12T07:27:23.110Z,2.80
2023-01-12T07:29:49.686Z,2.53
2023-01-12T07:32:17.122Z,2.55
2023-01-12T07:34:44.897Z,3.58
2023-01-12T07:37:11.600Z,4.20
2023-01-12T07:39:39.281Z,3.30
2023-01-12T07:42:25.901Z,2.45
2023-01-12T07:44:52.852Z,2.75
2023-01-12T07:47:19.607Z,2.65
2023-01-12T07:49:47.448Z,2.90
2023-01-12T07:52:14.157Z,2.65
2023-01-12T07:54:40.830Z,4.28
2023-01-12T07:57:09.391Z,2.63
2023-01-12T07:59:36.027Z,3.53
2023-01-12T08:02:02.641Z,2.70
2023-01-12T08:04:29.366Z,2.58
2023-01-12T08:06:55.991Z,2.90
2023-01-12T08:09:22.719Z,2.53
2023-01-12T08:11:49.329Z,2.80
2023-01-12T08:14:24.247Z,3.28
2023-01-12T08:16:50.995Z,2.40
2023-01-12T08:19:21.246Z,2.40
2023-01-12T08:21:50.577Z,2.70
2023-01-12T08:24:20.879Z,2.60
2023-01-12T08:26:47.985Z,2.90
2023-01-12T08:29:17.903Z,2.45
2023-01-12T08:31:44.613Z,3.03
2023-01-12T08:34:11.206Z,2.00
2023-01-12T08:36:38.012Z,2.67
2023-01-12T08:39:04.753Z,2.35
2023-01-12T08:41:32.753Z,2.70
2023-01-12T08:44:02.111Z,2.20
2023-01-12T08:46:39.244Z,2.42
2023-01-12T08:49:10.142Z,1.60
2023-01-12T08:51:39.306Z,2.35
2023-01-12T08:54:08.141Z,3.25
2023-01-12T08:56:34.914Z,2.08
2023-01-12T08:59:02.066Z,2.80
2023-01-12T09:01:28.935Z,2.40
2023-01-12T09:03:57.245Z,2.65
2023-01-12T09:06:25.813Z,2.83
2023-01-12T09:08:57.077Z,2.58
2023-01-12T09:11:23.931Z,2.10
2023-01-12T09:13:50.752Z,2.20
2023-01-12T09:16:18.544Z,2.22
2023-01-12T09:18:45.784Z,2.05
2023-01-12T09:21:13.867Z,2.58
2023-01-12T09:23:40.595Z,1.98
2023-01-12T09:26:10.050Z,1.83
2023-01-12T09:28:36.769Z,2.40
2023-01-12T09:31:06.011Z,1.95
2023-01-12T09:33:32.926Z,1.83
2023-01-12T09:36:01.893Z,1.60
2023-01-12T09:38:28.991Z,1.95
2023-01-12T09:40:57.645Z,1.60
2023-01-12T09:43:44.390Z,1.60
2023-01-12T09:46:54.955Z,1.48
2023-01-12T09:49:22.931Z,2.50
2023-01-12T09:51:54.381Z,1.60
2023-01-12T09:54:21.020Z,1.50
2023-01-12T09:56:52.373Z,1.60
2023-01-12T09:59:48.699Z,1.58
2023-01-12T10:02:15.541Z,1.70
2023-01-12T10:04:42.193Z,3.08
2023-01-12T10:07:12.477Z,1.95
2023-01-12T10:09:39.080Z,1.48
2023-01-12T10:12:34.670Z,1.45
2023-01-12T10:15:10.336Z,2.30
2023-01-12T10:18:02.209Z,1.30
2023-01-12T10:20:37.075Z,1.55
2023-01-12T10:23:24.351Z,1.60
2023-01-12T10:26:11.971Z,2.28
2023-01-12T10:28:38.683Z,1.90
2023-01-12T10:31:15.656Z,1.52
2023-01-12T10:33:43.747Z,1.75
2023-01-12T10:36:16.411Z,1.83
2023-01-12T10:41:31.109Z,1.83
2023-01-12T10:46:36.788Z,1.33
2023-01-12T10:51:58.203Z,2.38
2023-01-12T10:54:28.244Z,1.73
2023-01-12T10:57:00.266Z,2.60
2023-01-12T10:59:29.437Z,1.98
2023-01-12T11:02:14.092Z,1.55
2023-01-12T11:04:43.770Z,1.60
2023-01-12T11:07:27.046Z,1.48
2023-01-12T11:09:54.639Z,2.05
2023-01-12T11:12:37.994Z,1.73
2023-01-12T11:15:16.708Z,1.50
2023-01-12T11:18:15.011Z,1.65
2023-01-12T11:20:49.233Z,1.83
2023-01-12T11:23:20.974Z,1.20
2023-01-12T11:25:49.461Z,1.57
2023-01-12T11:28:23.952Z,1.25
2023-01-12T11:30:57.161Z,1.88
2023-01-12T11:33:41.625Z,1.40
2023-01-12T11:36:17.715Z,1.55
2023-01-12T11:38:49.619Z,1.45
2023-01-12T11:41:26.952Z,1.45
2023-01-12T11:44:13.884Z,1.70
2023-01-12T11:46:49.711Z,1.70
2023-01-12T11:49:20.602Z,1.52
2023-01-12T11:51:49.643Z,1.73
2023-01-12T11:54:17.294Z,1.55
2023-01-12T11:57:23.866Z,1.60
2023-01-12T12:00:30.330Z,1.42
2023-01-12T12:03:38.631Z,1.48
2023-01-12T12:06:32.083Z,1.30
2023-01-12T12:12:08.690Z,1.60
2023-01-12T12:14:54.376Z,1.75
2023-01-12T12:17:47.130Z,2.78
2023-01-12T12:23:21.549Z,3.38
2023-01-12T12:26:05.265Z,1.92
2023-01-12T12:28:53.436Z,1.17
2023-01-12T12:31:29.134Z,1.50
2023-01-12T12:34:25.714Z,1.10
2023-01-12T12:37:04.845Z,1.15
2023-01-12T12:39:57.121Z,1.60
2023-01-12T12:42:59.202Z,1.92
2023-01-12T12:46:05.799Z,1.42
2023-01-12T12:48:41.086Z,1.83
2023-01-12T12:51:09.168Z,1.50
2023-01-12T12:53:36.897Z,1.80
2023-01-12T12:56:09.066Z,1.60
2023-01-12T12:58:40.988Z,1.50
2023-01-12T13:01:31.445Z,1.80
2023-01-12T13:04:00.176Z,1.27
2023-01-12T13:06:47.221Z,1.33
2023-01-12T13:12:10.052Z,1.75
2023-01-12T13:14:40.680Z,1.55
2023-01-12T13:22:46.124Z,1.40
2023-01-12T13:25:27.205Z,1.45
2023-01-12T13:30:40.237Z,1.60
2023-01-12T13:33:25.218Z,1.80
2023-01-12T13:36:02.473Z,2.85
2023-01-12T13:38:51.523Z,1.75
2023-01-12T13:41:42.661Z,1.40
2023-01-12T13:44:13.651Z,1.40
2023-01-12T13:46:44.549Z,1.55
2023-01-12T13:49:31.582Z,1.90
2023-01-12T13:52:08.656Z,1.40
2023-01-12T13:54:35.968Z,1.70
2023-01-12T13:57:14.135Z,1.40
2023-01-12T13:59:40.755Z,1.42
2023-01-12T14:02:16.982Z,1.80
2023-01-12T14:04:54.951Z,1.67
2023-01-12T14:13:01.275Z,2.08
2023-01-12T14:16:03.081Z,1.95
2023-01-12T14:18:42.001Z,1.83
2023-01-12T14:21:32.715Z,1.60
2023-01-12T14:24:17.225Z,1.27
2023-01-12T14:26:44.341Z,1.90
2023-01-12T14:29:12.786Z,1.55
2023-01-12T14:31:43.468Z,1.67
2023-01-12T14:34:32.543Z,1.65
2023-01-12T14:36:59.395Z,1.25
2023-01-12T14:39:27.576Z,1.40
2023-01-12T14:42:14.781Z,1.20
2023-01-12T14:45:11.984Z,1.58
2023-01-12T14:47:38.793Z,1.77
2023-01-12T14:50:16.214Z,1.40
2023-01-12T14:52:44.512Z,1.50
2023-01-12T14:55:19.797Z,1.58
2023-01-12T14:57:51.011Z,1.67
2023-01-12T15:00:20.753Z,1.58
2023-01-12T15:02:50.365Z,1.50
2023-01-12T15:05:21.974Z,1.80
2023-01-12T15:10:57.269Z,1.30
2023-01-12T15:13:28.098Z,1.40
2023-01-12T15:16:15.934Z,1.60
2023-01-12T15:19:02.538Z,1.50
2023-01-12T15:21:49.301Z,1.60
2023-01-12T15:24:54.409Z,1.60
2023-01-12T15:27:22.449Z,1.70
2023-01-12T15:29:49.088Z,1.98
2023-01-12T15:32:53.338Z,1.50
2023-01-12T15:35:21.921Z,1.70
2023-01-12T15:37:48.566Z,1.65
2023-01-12T15:40:15.486Z,2.03
2023-01-12T15:42:42.197Z,1.38
2023-01-12T15:45:31.941Z,1.80
2023-01-12T15:47:58.691Z,1.60
2023-01-12T15:50:25.380Z,1.52
2023-01-12T15:52:52.666Z,1.15
2023-01-12T15:55:22.246Z,1.60
2023-01-12T15:57:50.795Z,1.63
2023-01-12T16:00:19.323Z,1.40
2023-01-12T16:02:47.781Z,1.77
2023-01-12T16:05:15.780Z,1.35
2023-01-12T16:07:42.488Z,1.90
2023-01-12T16:10:09.932Z,1.60
2023-01-12T16:12:37.127Z,0.93
2023-01-12T16:15:04.697Z,1.55
2023-01-12T16:17:31.448Z,1.50
2023-01-12T16:19:58.255Z,1.45
2023-01-12T16:22:26.339Z,2.17
2023-01-12T16:24:54.330Z,1.58
2023-01-12T16:27:22.210Z,1.40
2023-01-12T16:29:48.888Z,1.70
2023-01-12T16:32:15.736Z,1.75
2023-01-12T16:34:42.491Z,1.30
2023-01-12T16:37:13.063Z,1.85
2023-01-12T16:39:40.106Z,1.70
2023-01-12T16:42:06.982Z,1.30
2023-01-12T16:44:38.637Z,1.92
2023-01-12T16:47:07.250Z,1.55
2023-01-12T16:49:36.054Z,1.25
2023-01-12T16:52:03.697Z,2.00
2023-01-12T16:54:30.699Z,1.67
2023-01-12T16:56:58.833Z,1.40
2023-01-12T16:59:26.628Z,1.73
2023-01-12T17:01:53.986Z,1.50
2023-01-12T17:04:20.940Z,2.13
2023-01-12T17:06:48.021Z,1.70
2023-01-12T17:09:15.175Z,1.60
2023-01-12T17:11:43.615Z,1.50
2023-01-12T17:14:26.901Z,1.70
2023-01-12T17:16:56.647Z,1.73
2023-01-12T17:19:24.749Z,1.92
2023-01-12T17:21:51.605Z,1.67
2023-01-12T17:24:20.003Z,1.40
2023-01-12T17:26:49.391Z,1.42
2023-01-12T17:29:16.150Z,1.92
2023-01-12T17:31:43.057Z,1.70
2023-01-12T17:34:12.037Z,1.90
2023-01-12T17:36:39.612Z,1.70
2023-01-12T17:39:07.311Z,2.05
2023-01-12T17:41:53.973Z,1.67
2023-01-12T17:44:20.855Z,2.38
2023-01-12T17:46:47.528Z,2.08
2023-01-12T17:49:14.235Z,1.67
2023-01-12T17:51:41.309Z,2.10
2023-01-12T17:54:10.360Z,1.83
2023-01-12T17:56:37.055Z,1.63
2023-01-12T17:59:04.756Z,1.38
2023-01-12T18:01:33.497Z,1.70
2023-01-12T18:04:00.584Z,1.75
2023-01-12T18:06:27.486Z,1.58
2023-01-12T18:08:56.257Z,2.25
2023-01-12T18:11:23.022Z,1.30
2023-01-12T18:13:49.694Z,1.73
2023-01-12T18:16:16.787Z,1.92
2023-01-12T18:18:44.081Z,1.67
2023-01-12T18:21:12.773Z,1.38
2023-01-12T18:23:39.868Z,2.42
2023-01-12T18:26:08.295Z,1.50
2023-01-12T18:28:35.003Z,1.50
2023-01-12T18:31:05.981Z,2.22
2023-01-12T18:33:32.732Z,1.40
2023-01-12T18:35:59.433Z,1.40
2023-01-12T18:38:27.457Z,1.58
2023-01-12T18:41:14.342Z,1.50
2023-01-12T18:43:42.576Z,1.77
2023-01-12T18:46:10.975Z,1.70
2023-01-12T18:48:37.609Z,1.60
2023-01-12T18:51:24.561Z,1.55
2023-01-12T18:53:51.212Z,1.98
2023-01-12T18:56:18.821Z,2.08
2023-01-12T18:58:45.853Z,1.92
2023-01-12T19:01:18.317Z,2.33
2023-01-12T19:03:45.091Z,2.05
2023-01-12T19:06:23.162Z,1.85
2023-01-12T19:09:10.318Z,1.65
2023-01-12T19:11:37.509Z,2.00
2023-01-12T19:14:24.503Z,1.38
2023-01-12T19:17:11.050Z,2.42
2023-01-12T19:19:37.905Z,1.60
2023-01-12T19:22:24.505Z,1.60
2023-01-12T19:25:11.103Z,2.08
2023-01-12T19:27:57.737Z,1.50
2023-01-12T19:30:24.416Z,1.70
2023-01-12T19:32:51.576Z,1.40
2023-01-12T19:35:18.374Z,1.50
2023-01-12T19:37:48.859Z,2.08
2023-01-12T19:40:26.211Z,1.98
2023-01-12T19:43:12.842Z,1.80
2023-01-12T19:45:41.154Z,1.40
2023-01-12T19:48:08.015Z,1.85
2023-01-12T19:50:35.357Z,1.80
2023-01-12T19:53:03.354Z,1.85
2023-01-12T19:55:31.325Z,1.52
2023-01-12T19:57:58.509Z,2.03
2023-01-12T20:00:25.799Z,1.63
2023-01-12T20:02:52.625Z,2.03
2023-01-12T20:05:22.692Z,1.92
2023-01-12T20:07:50.763Z,1.98
2023-01-12T20:10:17.505Z,2.00
2023-01-12T20:12:44.468Z,1.88
2023-01-12T20:15:11.590Z,1.98
2023-01-12T20:17:38.267Z,1.45
2023-01-12T20:20:08.356Z,1.60
2023-01-12T20:22:35.792Z,1.50
2023-01-12T20:25:03.517Z,1.63
2023-01-12T20:27:30.365Z,1.60
2023-01-12T20:29:57.135Z,1.50
2023-01-12T20:32:23.950Z,1.52
2023-01-12T20:34:50.616Z,1.60
2023-01-12T20:37:17.546Z,1.52
2023-01-12T20:39:44.291Z,1.85
2023-01-12T20:42:11.037Z,1.65
2023-01-12T20:44:37.769Z,1.83
2023-01-12T20:47:04.414Z,1.55
2023-01-12T20:49:31.223Z,1.77
2023-01-12T20:51:59.117Z,1.70
2023-01-12T20:54:25.797Z,1.75
2023-01-12T20:56:52.393Z,1.95
2023-01-12T20:59:19.028Z,1.63
2023-01-12T21:01:45.771Z,1.83
2023-01-12T21:04:12.510Z,1.40
2023-01-12T21:06:42.342Z,1.67
2023-01-12T21:09:09.149Z,1.35
2023-01-12T21:11:36.947Z,1.60
2023-01-12T21:14:04.168Z,1.05
2023-01-12T21:16:31.262Z,1.88
2023-01-12T21:18:57.971Z,1.90
2023-01-12T21:21:25.061Z,1.95
2023-01-12T21:23:51.750Z,1.83
2023-01-12T21:26:18.349Z,1.80
2023-01-12T21:28:44.980Z,1.63
2023-01-12T21:31:12.099Z,1.42
2023-01-12T21:33:39.067Z,1.80
2023-01-12T21:36:06.166Z,2.42
2023-01-12T21:38:32.920Z,1.98
2023-01-12T21:41:01.975Z,2.50
2023-01-12T21:43:28.689Z,2.13
2023-01-12T21:45:57.248Z,2.15
2023-01-12T21:48:23.977Z,2.10
2023-01-12T21:50:50.567Z,2.30
2023-01-12T21:53:21.407Z,2.60
2023-01-12T21:55:54.417Z,1.40
2023-01-12T21:58:21.703Z,1.88
2023-01-12T22:00:48.341Z,1.83
2023-01-12T22:03:15.062Z,2.28
2023-01-12T22:05:43.923Z,2.22
2023-01-12T22:08:11.096Z,1.58
2023-01-12T22:10:37.748Z,1.90
2023-01-12T22:13:06.545Z,1.98
2023-01-12T22:15:33.352Z,1.58
2023-01-12T22:18:00.116Z,1.70
2023-01-12T22:20:27.773Z,1.75
2023-01-12T22:22:54.437Z,1.75
2023-01-12T22:25:21.206Z,3.30
2023-01-12T22:27:47.916Z,2.25
2023-01-12T22:30:16.788Z,2.22
2023-01-12T22:32:43.507Z,2.53
2023-01-12T22:35:10.441Z,1.83
2023-01-12T22:37:37.664Z,1.80
2023-01-12T22:40:05.581Z,2.10
2023-01-12T22:42:52.198Z,2.03
2023-01-12T22:45:19.023Z,2.03
2023-01-12T22:47:48.468Z,2.50
2023-01-12T22:50:15.436Z,2.53
2023-01-12T22:52:42.201Z,2.25
2023-01-12T22:55:09.153Z,1.92
2023-01-12T22:57:35.741Z,1.80
2023-01-12T23:00:02.376Z,2.10
2023-01-12T23:02:49.803Z,2.20
2023-01-12T23:05:16.465Z,2.25
2023-01-12T23:07:43.088Z,1.80
2023-01-12T23:10:10.155Z,1.60
2023-01-12T23:12:36.739Z,2.92
2023-01-12T23:15:03.450Z,1.60
2023-01-12T23:17:32.035Z,1.38
2023-01-12T23:19:58.844Z,1.13
2023-01-12T23:22:25.530Z,1.67
2023-01-12T23:24:52.233Z,1.05
2023-01-12T23:27:18.972Z,1.00
2023-01-12T23:29:46.942Z,1.02
2023-01-12T23:32:13.570Z,1.33
2023-01-12T23:34:40.232Z,1.33
2023-01-12T23:37:06.884Z,1.13
2023-01-12T23:39:33.528Z,1.13
2023-01-12T23:42:00.194Z,1.30
2023-01-12T23:44:26.814Z,1.50
2023-01-12T23:46:55.200Z,1.20
2023-01-12T23:49:21.871Z,0.90
2023-01-12T23:51:48.548Z,1.20
2023-01-12T23:54:16.919Z,0.98
2023-01-12T23:56:43.674Z,1.48
2023-01-12T23:59:10.318Z,1.20
